createdAt,value
2018-11-29T11:13:33.796Z,14.10
2018-11-29T11:16:02.187Z,14.70
2018-11-29T11:18:30.557Z,19.73
2018-11-29T11:20:58.922Z,15.90
2018-11-29T11:23:27.261Z,15.63
2018-11-29T11:25:55.690Z,14.67
2018-11-29T11:28:24.136Z,15.07
2018-11-29T11:30:52.596Z,32.13
2018-11-29T11:33:20.898Z,14.60
2018-11-29T11:35:49.255Z,14.63
2018-11-29T11:38:17.616Z,14.73
2018-11-29T11:40:46.065Z,14.53
2018-11-29T11:43:14.405Z,14.33
2018-11-29T11:45:42.790Z,13.30
2018-11-29T11:48:11.099Z,13.40
2018-11-29T11:50:39.463Z,13.93
2018-11-29T11:53:08.738Z,13.50
2018-11-29T11:55:37.773Z,14.17
2018-11-29T11:58:07.186Z,15.03
2018-11-29T12:00:35.496Z,16.93
2018-11-29T12:03:07.485Z,15.77
2018-11-29T12:05:36.407Z,15.77
2018-11-29T12:08:04.770Z,16.60
2018-11-29T12:10:33.224Z,15.87
2018-11-29T12:13:01.569Z,15.37
2018-11-29T12:15:29.997Z,19.07
2018-11-29T12:17:58.349Z,16.73
2018-11-29T12:20:26.758Z,16.63
2018-11-29T12:22:55.077Z,17.67
2018-11-29T12:25:23.535Z,16.67
2018-11-29T12:27:52.377Z,26.77
2018-11-29T12:30:26.982Z,16.77
2018-11-29T12:32:57.709Z,16.70
2018-11-29T12:35:26.117Z,16.03
2018-11-29T12:37:54.769Z,18.10
2018-11-29T12:40:23.156Z,19.30
2018-11-29T12:42:51.549Z,18.13
2018-11-29T12:45:20.085Z,24.03
2018-11-29T12:47:48.436Z,17.20
2018-11-29T12:50:21.176Z,17.10
2018-11-29T12:52:49.561Z,14.90
2018-11-29T12:55:19.106Z,15.13
2018-11-29T12:57:47.460Z,23.37
2018-11-29T13:00:18.700Z,14.80
2018-11-29T13:03:01.929Z,17.17
2018-11-29T13:05:30.314Z,15.23
2018-11-29T13:07:58.616Z,16.30
2018-11-29T13:10:27.789Z,17.80
2018-11-29T13:12:56.221Z,16.50
2018-11-29T13:15:25.821Z,15.97
2018-11-29T13:17:54.958Z,14.30
2018-11-29T13:20:23.225Z,18.37
2018-11-29T13:22:51.582Z,13.93
2018-11-29T13:25:22.194Z,14.80
2018-11-29T13:27:50.722Z,14.97
2018-11-29T13:30:20.176Z,14.07
2018-11-29T13:32:50.209Z,15.53
2018-11-29T13:35:29.503Z,15.13
2018-11-29T13:38:01.374Z,15.07
2018-11-29T13:43:14.299Z,15.10
2018-11-29T13:45:42.588Z,16.27
2018-11-29T13:48:12.551Z,16.90
2018-11-29T13:50:41.119Z,15.67
2018-11-29T13:53:09.410Z,17.27
2018-11-29T13:55:38.453Z,17.50
2018-11-29T13:58:07.249Z,18.93
2018-11-29T14:00:35.601Z,20.87
2018-11-29T14:03:10.939Z,21.87
2018-11-29T14:05:39.423Z,19.87
2018-11-29T14:08:09.107Z,19.43
2018-11-29T14:10:38.484Z,20.70
2018-11-29T14:13:09.101Z,20.10
2018-11-29T14:15:38.255Z,19.30
2018-11-29T14:18:07.312Z,18.57
2018-11-29T14:20:35.953Z,19.77
2018-11-29T14:23:04.534Z,19.80
2018-11-29T14:25:33.010Z,19.03
2018-11-29T14:28:01.398Z,20.50
2018-11-29T14:30:30.342Z,17.97
2018-11-29T14:32:59.841Z,18.97
2018-11-29T14:35:28.254Z,20.63
2018-11-29T14:37:57.603Z,19.37
2018-11-29T14:40:27.717Z,20.07
2018-11-29T14:42:56.168Z,21.17
2018-11-29T14:45:26.050Z,28.67
2018-11-29T14:47:55.418Z,18.07
2018-11-29T14:50:29.870Z,20.33
2018-11-29T14:52:58.457Z,20.53
2018-11-29T14:55:26.829Z,19.70
2018-11-29T14:57:55.328Z,22.70
2018-11-29T15:00:23.889Z,19.70
2018-11-29T15:02:52.541Z,19.00
2018-11-29T15:05:25.081Z,20.77
2018-11-29T15:07:53.564Z,19.07
2018-11-29T15:10:21.943Z,22.33
2018-11-29T15:12:50.451Z,20.13
2018-11-29T15:15:18.923Z,19.60
2018-11-29T15:17:48.256Z,20.30
2018-11-29T15:20:20.151Z,20.70
2018-11-29T15:22:48.738Z,20.37
2018-11-29T15:25:17.081Z,20.70
2018-11-29T15:27:45.813Z,20.80
2018-11-29T15:30:16.626Z,20.40
2018-11-29T15:32:45.128Z,20.83
2018-11-29T15:35:13.541Z,21.13
2018-11-29T15:37:41.960Z,22.03
2018-11-29T15:40:14.573Z,22.53
2018-11-29T15:42:43.016Z,21.00
2018-11-29T15:45:18.826Z,21.83
2018-11-29T15:47:47.249Z,20.70
2018-11-29T15:50:16.384Z,24.80
2018-11-29T15:52:44.835Z,20.67
2018-11-29T15:55:17.918Z,20.40
2018-11-29T15:57:47.402Z,22.47
2018-11-29T16:00:18.040Z,22.97
2018-11-29T16:02:47.298Z,19.93
2018-11-29T16:05:15.810Z,23.07
2018-11-29T16:07:44.223Z,20.63
2018-11-29T16:10:17.699Z,21.97
2018-11-29T16:12:46.228Z,22.40
2018-11-29T16:15:15.579Z,23.23
2018-11-29T16:17:44.440Z,22.50
2018-11-29T16:20:15.313Z,23.00
2018-11-29T16:22:43.799Z,21.97
2018-11-29T16:25:12.281Z,22.53
2018-11-29T16:27:41.423Z,23.53
2018-11-29T16:30:17.026Z,22.83
2018-11-29T16:32:45.304Z,22.43
2018-11-29T16:35:13.695Z,22.37
2018-11-29T16:37:42.130Z,23.13
2018-11-29T16:40:10.571Z,21.93
2018-11-29T16:42:38.928Z,24.20
2018-11-29T16:45:12.727Z,23.40
2018-11-29T16:47:41.420Z,22.30
2018-11-29T16:50:11.132Z,22.27
2018-11-29T16:52:39.596Z,23.00
2018-11-29T16:55:09.279Z,23.93
2018-11-29T16:57:37.987Z,21.90
2018-11-29T17:00:15.751Z,24.87
2018-11-29T17:02:44.157Z,22.90
2018-11-29T17:05:13.764Z,23.17
2018-11-29T17:07:42.544Z,24.37
2018-11-29T17:10:13.244Z,23.83
2018-11-29T17:12:42.426Z,22.07
2018-11-29T17:15:13.454Z,23.77
2018-11-29T17:17:41.842Z,25.23
2018-11-29T17:20:11.777Z,28.87
2018-11-29T17:22:40.168Z,23.87
2018-11-29T17:25:10.870Z,25.57
2018-11-29T17:27:39.329Z,25.07
2018-11-29T17:30:15.419Z,23.93
2018-11-29T17:32:43.948Z,25.53
2018-11-29T17:35:12.375Z,30.90
2018-11-29T17:37:40.823Z,24.00
2018-11-29T17:40:14.112Z,24.87
2018-11-29T17:42:42.669Z,25.60
2018-11-29T17:45:12.307Z,23.80
2018-11-29T17:47:41.371Z,24.93
2018-11-29T17:50:15.448Z,23.87
2018-11-29T17:52:43.828Z,25.17
2018-11-29T17:55:12.588Z,24.13
2018-11-29T17:57:40.957Z,25.17
2018-11-29T18:00:13.719Z,24.17
2018-11-29T18:02:42.129Z,24.33
2018-11-29T18:05:10.485Z,25.63
2018-11-29T18:07:38.911Z,25.20
2018-11-29T18:10:10.346Z,24.20
2018-11-29T18:12:38.889Z,24.53
2018-11-29T18:15:10.559Z,23.90
2018-11-29T18:17:38.992Z,22.93
2018-11-29T18:20:09.203Z,23.67
2018-11-29T18:22:37.578Z,24.83
2018-11-29T18:25:08.855Z,22.17
2018-11-29T18:27:37.238Z,24.77
2018-11-29T18:30:12.120Z,24.03
2018-11-29T18:32:40.655Z,24.37
2018-11-29T18:35:11.088Z,23.73
2018-11-29T18:37:39.699Z,24.50
2018-11-29T18:40:13.242Z,25.00
2018-11-29T18:42:41.689Z,24.70
2018-11-29T18:45:11.374Z,24.70
2018-11-29T18:47:40.220Z,26.20
2018-11-29T18:50:17.446Z,23.53
2018-11-29T18:52:45.848Z,25.47
2018-11-29T18:55:14.192Z,24.03
2018-11-29T18:57:42.636Z,25.60
2018-11-29T19:00:15.098Z,23.97
2018-11-29T19:02:43.580Z,22.90
2018-11-29T19:05:11.922Z,24.20
2018-11-29T19:07:40.426Z,24.00
2018-11-29T19:10:13.758Z,22.97
2018-11-29T19:12:50.142Z,23.13
2018-11-29T19:15:18.589Z,23.77
2018-11-29T19:17:47.141Z,24.37
2018-11-29T19:20:15.510Z,22.63
2018-11-29T19:22:43.944Z,21.30
2018-11-29T19:25:15.566Z,22.33
2018-11-29T19:27:43.971Z,23.93
2018-11-29T19:30:18.757Z,22.97
2018-11-29T19:32:49.808Z,21.43
2018-11-29T19:35:18.182Z,21.97
2018-11-29T19:37:46.540Z,22.60
2018-11-29T19:40:16.137Z,25.20
2018-11-29T19:42:44.548Z,22.77
2018-11-29T19:45:15.604Z,21.77
2018-11-29T19:47:44.000Z,22.67
2018-11-29T19:50:17.499Z,21.07
2018-11-29T19:52:48.202Z,20.37
2018-11-29T19:55:21.125Z,22.27
2018-11-29T19:57:50.057Z,21.20
2018-11-29T20:00:18.703Z,22.30
2018-11-29T20:02:47.911Z,21.80
2018-11-29T20:05:16.295Z,22.23
2018-11-29T20:07:44.689Z,22.20
2018-11-29T20:10:15.197Z,22.67
2018-11-29T20:12:44.470Z,20.63
2018-11-29T20:15:20.465Z,20.73
2018-11-29T20:17:48.800Z,22.57
2018-11-29T20:20:17.204Z,21.70
2018-11-29T20:22:45.670Z,22.53
2018-11-29T20:25:15.069Z,22.90
2018-11-29T20:27:43.988Z,22.90
2018-11-29T20:30:15.612Z,22.20
2018-11-29T20:32:44.096Z,22.30
2018-11-29T20:35:12.960Z,22.30
2018-11-29T20:37:41.551Z,22.10
2018-11-29T20:40:13.422Z,21.57
2018-11-29T20:42:41.983Z,21.77
2018-11-29T20:45:12.283Z,23.27
2018-11-29T20:47:40.661Z,20.50
2018-11-29T20:50:14.751Z,21.00
2018-11-29T20:52:39.617Z,22.57
2018-11-29T20:55:12.605Z,21.77
2018-11-29T20:57:40.952Z,21.87
2018-11-29T21:00:13.805Z,22.30
2018-11-29T21:02:42.386Z,21.63
2018-11-29T21:05:14.320Z,22.43
2018-11-29T21:07:44.107Z,23.83
2018-11-29T21:10:15.967Z,23.00
2018-11-29T21:12:44.423Z,20.93
2018-11-29T21:15:12.851Z,21.27
2018-11-29T21:17:41.305Z,21.87
2018-11-29T21:20:11.958Z,22.70
2018-11-29T21:22:40.553Z,18.90
2018-11-29T21:25:13.199Z,21.27
2018-11-29T21:27:41.626Z,21.13
2018-11-29T21:30:12.350Z,22.33
2018-11-29T21:32:40.837Z,21.03
2018-11-29T21:35:10.345Z,29.53
2018-11-29T21:37:38.932Z,26.90
2018-11-29T21:40:13.067Z,29.23
2018-11-29T21:42:41.435Z,21.30
2018-11-29T21:45:10.044Z,21.67
2018-11-29T21:47:38.460Z,22.23
2018-11-29T21:50:08.232Z,21.63
2018-11-29T21:52:36.631Z,22.20
2018-11-29T21:55:05.834Z,22.53
2018-11-29T21:57:34.221Z,24.03
2018-11-29T22:00:02.690Z,21.80
2018-11-29T22:02:31.106Z,22.73
2018-11-29T22:04:59.470Z,21.47
2018-11-29T22:07:27.797Z,23.37
2018-11-29T22:09:56.186Z,21.83
2018-11-29T22:12:24.573Z,23.03
2018-11-29T22:14:52.955Z,21.87
2018-11-29T22:17:24.734Z,23.53
2018-11-29T22:19:53.112Z,23.13
2018-11-29T22:22:21.477Z,23.53
2018-11-29T22:24:49.875Z,21.83
2018-11-29T22:27:18.269Z,23.70
2018-11-29T22:29:46.598Z,22.23
2018-11-29T22:32:14.955Z,21.67
2018-11-29T22:34:43.342Z,20.67
2018-11-29T22:37:11.825Z,26.93
2018-11-29T22:39:40.510Z,21.43
2018-11-29T22:42:08.901Z,21.33
2018-11-29T22:44:37.250Z,20.67
2018-11-29T22:47:06.331Z,22.17
2018-11-29T22:49:34.655Z,21.67
2018-11-29T22:52:02.948Z,21.53
2018-11-29T22:54:31.396Z,22.50
2018-11-29T22:56:59.754Z,20.37
2018-11-29T22:59:28.092Z,22.10
2018-11-29T23:01:56.446Z,21.67
2018-11-29T23:04:24.847Z,19.70
2018-11-29T23:06:53.192Z,21.20
2018-11-29T23:09:21.903Z,21.00
2018-11-29T23:11:49.846Z,20.17
2018-11-29T23:14:18.510Z,21.40
2018-11-29T23:16:47.109Z,22.13
2018-11-29T23:19:15.581Z,21.10
2018-11-29T23:21:43.864Z,21.03
2018-11-29T23:24:12.501Z,21.23
2018-11-29T23:26:40.887Z,21.83
2018-11-29T23:29:09.220Z,21.87
2018-11-29T23:31:38.061Z,20.77
2018-11-29T23:34:06.832Z,20.43
2018-11-29T23:36:35.227Z,21.40
2018-11-29T23:39:03.766Z,21.27
2018-11-29T23:41:32.117Z,19.93
2018-11-29T23:44:00.384Z,20.77
2018-11-29T23:46:29.036Z,20.00
2018-11-29T23:48:57.473Z,20.30
2018-11-29T23:51:25.792Z,20.53
2018-11-29T23:54:57.014Z,17.97
2018-11-29T23:57:25.722Z,20.80
2018-11-29T23:59:54.029Z,23.03
